< < Back
Terminal Aerodrome Forecast


Current Version              Previous Versions:   1  2  3  4  5  6  7  8  9  

Terminal Aerodrome Forecast

712
FTUS42 KCAE 010200 AAA
TAFCAE
TAF AMD
KCAE 010208Z 0102/0124 06008KT P6SM -RA OVC030
     FM010600 04005KT 5SM -RA OVC015
     FM011200 03005KT 3SM -RA BR OVC006=

Latest METAR

532
SAUS80 KWBC 011500 CCC
MTRCAE
METAR KCAE 011456Z 02005KT 4SM -RA BR OVC006 02/02 A3055 RMK AO2 CIG
005V008 SLP344 P0001 60015 T00220017 50004 $


USA.gov is the U.S. government's official web portal to all federal, state and local government web resources and services.